createdAt,value
2023-03-02T00:02:05.370Z,1.83
2023-03-02T00:04:12.809Z,1.87
2023-03-02T00:06:15.746Z,2.27
2023-03-02T00:08:19.682Z,1.97
2023-03-02T00:10:22.324Z,1.97
2023-03-02T00:12:27.633Z,1.40
2023-03-02T00:14:30.444Z,1.50
2023-03-02T00:16:34.285Z,2.13
2023-03-02T00:18:37.248Z,1.90
2023-03-02T00:20:39.878Z,1.70
2023-03-02T00:22:44.659Z,1.20
2023-03-02T00:24:47.314Z,2.37
2023-03-02T00:26:49.922Z,1.67
2023-03-02T00:28:52.590Z,1.80
2023-03-02T00:30:55.197Z,1.27
2023-03-02T00:32:58.713Z,1.87
2023-03-02T00:35:01.311Z,2.50
2023-03-02T00:37:06.165Z,1.87
2023-03-02T00:39:09.087Z,2.73
2023-03-02T00:41:13.433Z,1.97
2023-03-02T00:43:17.885Z,2.20
2023-03-02T00:45:20.431Z,1.70
2023-03-02T00:47:23.093Z,2.63
2023-03-02T00:49:25.793Z,2.90
2023-03-02T00:51:28.367Z,1.90
2023-03-02T00:53:31.488Z,1.67
2023-03-02T00:55:34.103Z,1.57
2023-03-02T00:57:36.798Z,1.77
2023-03-02T00:59:39.880Z,2.20
2023-03-02T01:01:42.432Z,2.07
2023-03-02T01:03:45.083Z,2.73
2023-03-02T01:05:48.313Z,2.10
2023-03-02T01:07:50.966Z,2.27
2023-03-02T01:09:53.637Z,1.60
2023-03-02T01:11:56.641Z,2.17
2023-03-02T01:13:59.265Z,1.63
2023-03-02T01:16:03.197Z,1.70
2023-03-02T01:18:05.941Z,2.00
2023-03-02T01:20:09.545Z,2.07
2023-03-02T01:22:12.197Z,1.67
2023-03-02T01:24:14.981Z,1.10
2023-03-02T01:26:17.606Z,1.10
2023-03-02T01:28:20.240Z,1.50
2023-03-02T01:30:22.818Z,1.60
2023-03-02T01:32:25.825Z,1.77
2023-03-02T01:34:28.779Z,1.53
2023-03-02T01:36:31.626Z,1.50
2023-03-02T01:38:34.432Z,1.53
2023-03-02T01:40:37.326Z,1.97
2023-03-02T01:42:47.809Z,1.40
2023-03-02T01:44:57.363Z,1.17
2023-03-02T01:47:00.184Z,1.60
2023-03-02T01:49:12.230Z,1.70
2023-03-02T01:53:22.806Z,2.13
2023-03-02T01:55:29.540Z,1.70
2023-03-02T01:57:43.746Z,1.20
2023-03-02T01:59:47.893Z,1.17
2023-03-02T02:01:57.377Z,1.90
2023-03-02T02:04:01.902Z,1.97
2023-03-02T02:06:31.671Z,1.13
2023-03-02T02:08:34.671Z,1.60
2023-03-02T02:10:37.778Z,1.27
2023-03-02T02:12:40.770Z,2.20
2023-03-02T02:15:04.649Z,1.20
2023-03-02T02:17:07.292Z,1.60
2023-03-02T02:19:32.855Z,1.50
2023-03-02T02:21:35.408Z,1.60
2023-03-02T02:24:08.824Z,1.63
2023-03-02T02:26:24.824Z,1.20
2023-03-02T02:28:50.205Z,2.23
2023-03-02T02:31:06.803Z,1.43
2023-03-02T02:33:17.644Z,1.97
2023-03-02T02:35:24.670Z,1.83
2023-03-02T02:37:47.714Z,1.83
2023-03-02T02:39:51.766Z,2.63
2023-03-02T02:41:58.924Z,2.13
2023-03-02T02:44:01.734Z,1.73
2023-03-02T02:46:04.616Z,1.63
2023-03-02T02:48:15.544Z,2.00
2023-03-02T02:50:25.210Z,1.43
2023-03-02T02:52:29.318Z,1.53
2023-03-02T02:54:34.630Z,1.63
2023-03-02T02:56:39.950Z,1.47
2023-03-02T02:58:47.477Z,1.00
2023-03-02T03:00:50.295Z,1.80
2023-03-02T03:03:29.453Z,2.00
2023-03-02T03:05:32.124Z,1.43
2023-03-02T03:07:34.691Z,1.97
2023-03-02T03:09:37.330Z,1.80
2023-03-02T03:11:43.758Z,1.87
2023-03-02T03:13:47.253Z,1.50
2023-03-02T03:15:50.044Z,1.80
2023-03-02T03:17:56.993Z,2.50
2023-03-02T03:20:06.493Z,2.40
2023-03-02T03:22:13.640Z,1.97
2023-03-02T03:24:16.444Z,1.30
2023-03-02T03:26:19.116Z,1.63
2023-03-02T03:28:21.686Z,1.50
2023-03-02T03:30:24.334Z,1.43
2023-03-02T03:32:27.675Z,1.80
2023-03-02T03:34:32.112Z,1.97
2023-03-02T03:36:35.609Z,1.40
2023-03-02T03:38:38.853Z,1.73
2023-03-02T03:40:41.411Z,1.53
2023-03-02T03:42:44.222Z,1.47
2023-03-02T03:44:47.334Z,1.67
2023-03-02T03:46:51.418Z,2.00
2023-03-02T03:48:54.437Z,2.00
2023-03-02T03:50:59.842Z,1.60
2023-03-02T03:53:03.922Z,1.27
2023-03-02T03:55:07.107Z,1.63
2023-03-02T03:57:12.287Z,1.53
2023-03-02T03:59:18.223Z,1.77
2023-03-02T04:01:20.817Z,1.93
2023-03-02T04:03:24.309Z,1.23
2023-03-02T04:05:27.680Z,2.10
2023-03-02T04:07:30.325Z,1.73
2023-03-02T04:09:38.023Z,1.67
2023-03-02T04:11:42.774Z,1.37
2023-03-02T04:13:45.417Z,1.50
2023-03-02T04:15:48.170Z,1.10
2023-03-02T04:17:51.470Z,1.47
2023-03-02T04:19:55.225Z,1.50
2023-03-02T04:21:58.720Z,1.27
2023-03-02T04:24:01.276Z,2.20
2023-03-02T04:26:05.408Z,1.40
2023-03-02T04:28:08.041Z,1.67
2023-03-02T04:30:11.480Z,2.00
2023-03-02T04:32:16.791Z,1.80
2023-03-02T04:34:19.392Z,1.30
2023-03-02T04:36:22.008Z,1.50
2023-03-02T04:38:24.804Z,1.30
2023-03-02T04:40:27.499Z,1.73
2023-03-02T04:42:30.261Z,1.40
2023-03-02T04:44:32.986Z,2.40
2023-03-02T04:46:36.008Z,1.70
2023-03-02T04:48:38.848Z,1.73
2023-03-02T04:50:41.867Z,1.60
2023-03-02T04:52:44.583Z,1.87
2023-03-02T04:54:47.659Z,1.47
2023-03-02T04:56:51.843Z,2.10
2023-03-02T04:58:55.159Z,1.97
2023-03-02T05:01:02.332Z,1.60
2023-03-02T05:03:06.358Z,1.27
2023-03-02T05:05:21.513Z,2.30
2023-03-02T05:07:24.167Z,1.90
2023-03-02T05:09:28.898Z,2.97
2023-03-02T05:11:31.554Z,1.50
2023-03-02T05:13:35.762Z,1.50
2023-03-02T05:15:40.726Z,1.27
2023-03-02T05:17:43.340Z,1.07
2023-03-02T05:19:45.962Z,1.33
2023-03-02T05:21:48.763Z,1.73
2023-03-02T05:23:51.592Z,1.33
2023-03-02T05:25:56.330Z,1.40
2023-03-02T05:27:59.950Z,1.75
2023-03-02T05:30:05.328Z,2.00
2023-03-02T05:32:10.679Z,1.05
2023-03-02T05:34:16.292Z,1.33
2023-03-02T05:36:20.727Z,1.27
2023-03-02T05:38:24.391Z,0.70
2023-03-02T05:40:27.210Z,1.73
2023-03-02T05:42:29.884Z,1.40
2023-03-02T05:44:32.679Z,1.63
2023-03-02T05:46:35.750Z,1.35
2023-03-02T05:48:38.808Z,1.10
2023-03-02T05:50:41.768Z,1.23
2023-03-02T05:52:45.718Z,1.73
2023-03-02T05:54:48.325Z,1.33
2023-03-02T05:56:50.906Z,1.67
2023-03-02T05:58:53.933Z,1.80
2023-03-02T06:00:56.576Z,1.20
2023-03-02T06:02:59.287Z,1.42
2023-03-02T06:05:02.118Z,1.40
2023-03-02T06:07:06.285Z,1.30
2023-03-02T06:09:08.878Z,1.42
2023-03-02T06:11:12.599Z,1.40
2023-03-02T06:13:15.925Z,1.55
2023-03-02T06:15:18.780Z,1.52
2023-03-02T06:17:21.530Z,1.40
2023-03-02T06:19:24.468Z,1.50
2023-03-02T06:21:27.084Z,1.83
2023-03-02T06:23:30.133Z,1.77
2023-03-02T06:25:33.204Z,1.70
2023-03-02T06:27:35.793Z,1.65
2023-03-02T06:29:38.794Z,1.45
2023-03-02T06:31:41.589Z,1.55
2023-03-02T06:33:44.275Z,1.47
2023-03-02T06:35:47.409Z,1.17
2023-03-02T06:37:50.161Z,1.60
2023-03-02T06:39:52.861Z,1.25
2023-03-02T06:41:55.552Z,1.33
2023-03-02T06:43:58.147Z,1.20
2023-03-02T06:46:01.011Z,1.45
2023-03-02T06:48:04.592Z,1.60
2023-03-02T06:50:08.439Z,1.55
2023-03-02T06:52:13.808Z,1.55
2023-03-02T06:54:16.445Z,1.77
2023-03-02T06:56:19.081Z,1.42
2023-03-02T06:58:21.974Z,1.10
2023-03-02T07:00:26.454Z,1.10
2023-03-02T07:02:29.143Z,1.90
2023-03-02T07:04:31.941Z,1.00
2023-03-02T07:06:34.576Z,1.35
2023-03-02T07:08:37.427Z,1.20
2023-03-02T07:10:40.117Z,1.45
2023-03-02T07:12:43.050Z,1.25
2023-03-02T07:14:45.733Z,1.20
2023-03-02T07:16:48.454Z,1.00
2023-03-02T07:18:51.134Z,1.50
2023-03-02T07:20:53.772Z,1.00
2023-03-02T07:22:56.473Z,1.10
2023-03-02T07:24:59.119Z,0.82
2023-03-02T07:27:01.719Z,1.20
2023-03-02T07:29:04.505Z,1.80
2023-03-02T07:31:08.256Z,1.10
2023-03-02T07:33:10.940Z,1.25
2023-03-02T07:35:13.584Z,1.17
2023-03-02T07:37:16.187Z,1.35
2023-03-02T07:39:19.393Z,0.75
2023-03-02T07:41:22.968Z,1.13
2023-03-02T07:43:26.756Z,1.50
2023-03-02T07:45:29.445Z,1.83
2023-03-02T07:47:32.592Z,0.75
2023-03-02T07:49:38.056Z,1.55
2023-03-02T07:51:40.657Z,1.80
2023-03-02T07:53:43.198Z,1.25
2023-03-02T07:55:46.289Z,1.50
2023-03-02T07:57:48.851Z,1.23
2023-03-02T07:59:51.557Z,1.38
2023-03-02T08:01:54.649Z,1.55
2023-03-02T08:03:57.517Z,0.65
2023-03-02T08:06:08.251Z,0.77
2023-03-02T08:08:10.945Z,1.25
2023-03-02T08:10:13.497Z,1.20
2023-03-02T08:12:16.142Z,1.08
2023-03-02T08:14:18.799Z,1.10
2023-03-02T08:16:22.584Z,1.08
2023-03-02T08:18:25.224Z,1.08
2023-03-02T08:20:28.063Z,1.00
2023-03-02T08:22:30.780Z,1.02
2023-03-02T08:24:33.488Z,1.48
2023-03-02T08:26:36.141Z,0.95
2023-03-02T08:28:38.898Z,1.10
2023-03-02T08:30:41.619Z,1.08
2023-03-02T08:32:44.561Z,0.68
2023-03-02T08:34:51.403Z,1.00
2023-03-02T08:36:54.467Z,0.90
2023-03-02T08:38:57.196Z,1.00
2023-03-02T08:41:03.680Z,1.23
2023-03-02T08:43:08.062Z,1.35
2023-03-02T08:45:10.954Z,0.70
2023-03-02T08:47:13.582Z,1.23
2023-03-02T08:49:17.544Z,1.02
2023-03-02T08:51:23.275Z,1.08
2023-03-02T08:53:27.104Z,1.05
2023-03-02T08:55:29.719Z,1.13
2023-03-02T08:57:32.570Z,0.65
2023-03-02T08:59:35.131Z,0.88
2023-03-02T09:01:39.012Z,1.15
2023-03-02T09:03:42.036Z,0.90
2023-03-02T09:05:44.725Z,0.93
2023-03-02T09:07:47.327Z,1.05
2023-03-02T09:09:49.969Z,1.08
2023-03-02T09:11:52.656Z,1.08
2023-03-02T09:13:56.414Z,0.77
2023-03-02T09:15:59.405Z,1.40
2023-03-02T09:18:02.248Z,1.20
2023-03-02T09:20:05.489Z,0.95
2023-03-02T09:22:09.280Z,1.00
2023-03-02T09:24:12.020Z,1.10
2023-03-02T09:26:14.741Z,0.95
2023-03-02T09:28:17.966Z,0.73
2023-03-02T09:30:20.585Z,0.70
2023-03-02T09:32:23.588Z,1.05
2023-03-02T09:34:26.425Z,0.90
2023-03-02T09:36:29.114Z,1.13
2023-03-02T09:38:31.986Z,0.65
2023-03-02T09:40:42.964Z,1.02
2023-03-02T09:42:54.258Z,1.15
2023-03-02T09:45:16.656Z,0.93
2023-03-02T09:47:45.607Z,0.77
2023-03-02T09:50:32.348Z,1.40
2023-03-02T09:52:45.212Z,0.80
2023-03-02T09:54:48.246Z,0.70
2023-03-02T09:56:54.847Z,0.98
2023-03-02T09:59:07.177Z,0.90
2023-03-02T10:01:16.844Z,0.85
2023-03-02T10:03:23.931Z,1.00
2023-03-02T10:05:37.780Z,0.82
2023-03-02T10:07:40.619Z,1.27
2023-03-02T10:09:44.148Z,1.30
2023-03-02T10:12:13.063Z,0.80
2023-03-02T10:14:23.672Z,1.02
2023-03-02T10:16:49.088Z,1.00
2023-03-02T10:18:58.509Z,1.35
2023-03-02T10:21:05.750Z,1.65
2023-03-02T10:23:20.641Z,2.35
2023-03-02T10:25:42.000Z,2.70
2023-03-02T10:27:51.742Z,2.83
2023-03-02T10:30:08.250Z,2.05
2023-03-02T10:32:29.848Z,2.25
2023-03-02T10:34:35.535Z,2.30
2023-03-02T10:36:41.053Z,2.95
2023-03-02T10:38:43.827Z,3.10
2023-03-02T10:40:47.835Z,2.20
2023-03-02T10:42:50.697Z,2.53
2023-03-02T10:44:59.466Z,2.90
2023-03-02T10:47:02.206Z,2.80
2023-03-02T10:49:04.960Z,2.72
2023-03-02T10:51:07.550Z,2.78
2023-03-02T10:53:19.372Z,2.47
2023-03-02T10:55:22.922Z,2.60
2023-03-02T10:57:38.731Z,2.35
2023-03-02T10:59:47.845Z,3.67
2023-03-02T11:02:32.880Z,2.60
2023-03-02T11:04:40.192Z,2.65
2023-03-02T11:06:43.719Z,2.53
2023-03-02T11:08:47.444Z,2.95
2023-03-02T11:11:22.724Z,2.42
2023-03-02T11:13:33.395Z,2.65
2023-03-02T11:15:45.036Z,2.83
2023-03-02T11:18:10.218Z,3.35
2023-03-02T11:20:24.845Z,2.83
2023-03-02T11:22:38.912Z,3.13
2023-03-02T11:24:49.312Z,3.45
2023-03-02T11:26:58.885Z,2.60
2023-03-02T11:29:11.636Z,2.72
2023-03-02T11:31:41.113Z,2.50
2023-03-02T11:34:16.759Z,2.33
2023-03-02T11:36:28.580Z,2.40
2023-03-02T11:38:54.728Z,1.90
2023-03-02T11:41:11.729Z,2.35
2023-03-02T11:43:14.456Z,2.17
2023-03-02T11:45:27.854Z,2.35
2023-03-02T11:47:33.961Z,2.63
2023-03-02T11:49:42.642Z,2.63
2023-03-02T11:51:58.335Z,2.15
2023-03-02T11:54:12.115Z,2.35
2023-03-02T11:56:14.748Z,3.28
2023-03-02T11:58:23.718Z,2.58
2023-03-02T12:00:34.897Z,3.47
2023-03-02T12:02:37.568Z,3.00
2023-03-02T12:04:40.335Z,2.88
2023-03-02T12:06:45.472Z,3.03
2023-03-02T12:08:52.038Z,3.00
2023-03-02T12:11:01.913Z,3.00
2023-03-02T12:13:17.716Z,3.40
2023-03-02T12:15:35.456Z,3.03
2023-03-02T12:17:39.853Z,2.67
2023-03-02T12:19:45.329Z,3.00
2023-03-02T12:22:01.044Z,2.50
2023-03-02T12:24:04.189Z,2.92
2023-03-02T12:26:26.787Z,2.97
2023-03-02T12:28:56.745Z,3.42
2023-03-02T12:31:11.021Z,3.88
2023-03-02T12:33:22.639Z,3.42
2023-03-02T12:35:26.450Z,3.47
2023-03-02T12:37:49.667Z,3.15
2023-03-02T12:40:24.762Z,3.55
2023-03-02T12:42:27.394Z,3.63
2023-03-02T12:44:48.039Z,3.90
2023-03-02T12:46:52.125Z,4.18
2023-03-02T12:49:00.584Z,3.65
2023-03-02T12:51:05.332Z,2.38
2023-03-02T12:53:17.563Z,2.95
2023-03-02T12:55:20.730Z,3.63
2023-03-02T12:57:23.336Z,2.97
2023-03-02T12:59:28.762Z,3.28
2023-03-02T13:01:33.630Z,3.20
2023-03-02T13:03:47.916Z,3.72
2023-03-02T13:05:50.646Z,3.20
2023-03-02T13:08:02.338Z,3.00
2023-03-02T13:10:26.800Z,3.40
2023-03-02T13:12:30.618Z,4.75
2023-03-02T13:14:33.297Z,4.57
2023-03-02T13:16:37.079Z,3.40
2023-03-02T13:18:40.170Z,3.50
2023-03-02T13:20:43.228Z,3.60
2023-03-02T13:22:46.232Z,3.20
2023-03-02T13:25:08.379Z,3.60
2023-03-02T13:27:20.760Z,4.68
2023-03-02T13:29:27.958Z,3.22
2023-03-02T13:31:32.602Z,3.63
2023-03-02T13:33:44.566Z,3.78
2023-03-02T13:35:48.305Z,3.08
2023-03-02T13:38:07.279Z,3.22
2023-03-02T13:40:22.467Z,3.13
2023-03-02T13:42:35.573Z,3.95
2023-03-02T13:44:38.493Z,3.23
2023-03-02T13:46:42.392Z,3.37
2023-03-02T13:49:09.706Z,2.90
2023-03-02T13:51:18.924Z,4.38
2023-03-02T13:53:22.179Z,3.00
2023-03-02T13:55:25.486Z,3.33
2023-03-02T13:57:33.731Z,3.43
2023-03-02T13:59:36.828Z,3.43
2023-03-02T14:01:41.766Z,3.87
2023-03-02T14:03:44.762Z,3.80
2023-03-02T14:05:47.589Z,3.27
2023-03-02T14:07:50.575Z,3.50
2023-03-02T14:09:53.667Z,3.80
2023-03-02T14:11:58.021Z,3.03
2023-03-02T14:14:03.361Z,3.10
2023-03-02T14:16:07.297Z,2.90
2023-03-02T14:18:31.629Z,4.10
2023-03-02T14:20:41.040Z,3.10
2023-03-02T14:22:47.334Z,3.57
2023-03-02T14:24:50.251Z,3.50
2023-03-02T14:26:55.473Z,2.83
2023-03-02T14:29:22.648Z,3.73
2023-03-02T14:31:27.726Z,3.30
2023-03-02T14:33:31.079Z,3.83
2023-03-02T14:35:34.004Z,3.43
2023-03-02T14:37:36.577Z,3.23
2023-03-02T14:39:40.901Z,4.03
2023-03-02T14:41:53.272Z,3.80
2023-03-02T14:43:56.576Z,3.93
2023-03-02T14:45:59.360Z,3.67
2023-03-02T14:48:02.340Z,3.70
2023-03-02T14:50:05.578Z,3.83
2023-03-02T14:52:23.943Z,4.07
2023-03-02T14:54:27.763Z,4.23
2023-03-02T14:56:30.611Z,4.40
2023-03-02T14:58:34.820Z,4.70
2023-03-02T15:00:37.475Z,3.97
2023-03-02T15:02:40.348Z,4.40
2023-03-02T15:04:43.064Z,5.23
2023-03-02T15:06:46.544Z,4.40
2023-03-02T15:08:49.297Z,3.80
2023-03-02T15:10:51.989Z,4.20
2023-03-02T15:12:54.586Z,4.47
2023-03-02T15:14:57.234Z,4.20
2023-03-02T15:16:59.870Z,3.90
2023-03-02T15:19:02.486Z,3.87
2023-03-02T15:21:05.781Z,4.40
2023-03-02T15:23:08.601Z,3.97
2023-03-02T15:25:11.726Z,4.47
2023-03-02T15:27:15.022Z,4.70
2023-03-02T15:29:18.621Z,3.60
2023-03-02T15:31:21.489Z,4.20
2023-03-02T15:33:24.365Z,3.37
2023-03-02T15:35:28.242Z,3.80
2023-03-02T15:37:31.146Z,3.07
2023-03-02T15:39:35.000Z,3.67
2023-03-02T15:41:38.485Z,4.10
2023-03-02T15:43:41.400Z,3.50
2023-03-02T15:45:47.392Z,3.17
2023-03-02T15:47:50.232Z,3.57
2023-03-02T15:49:52.897Z,4.33
2023-03-02T15:51:59.941Z,3.10
2023-03-02T15:54:02.586Z,3.77
2023-03-02T15:56:10.839Z,3.63
2023-03-02T15:58:13.452Z,3.87
2023-03-02T16:00:16.764Z,3.50
2023-03-02T16:02:19.376Z,3.03
2023-03-02T16:04:21.969Z,3.27
2023-03-02T16:06:24.644Z,4.03
2023-03-02T16:08:27.329Z,3.10
2023-03-02T16:10:32.089Z,2.73
2023-03-02T16:12:34.736Z,3.63
2023-03-02T16:14:38.114Z,3.50
2023-03-02T16:16:44.498Z,3.87
2023-03-02T16:18:56.041Z,3.90
2023-03-02T16:20:59.052Z,2.47
2023-03-02T16:23:06.509Z,3.33
2023-03-02T16:25:09.733Z,3.37
2023-03-02T16:27:12.433Z,3.47
2023-03-02T16:29:15.057Z,3.93
2023-03-02T16:31:20.093Z,3.60
2023-03-02T16:33:23.127Z,3.67
2023-03-02T16:35:26.383Z,2.77
2023-03-02T16:37:29.288Z,4.03
2023-03-02T16:39:33.094Z,4.60
2023-03-02T16:41:36.904Z,2.40
2023-03-02T16:43:48.782Z,4.73
2023-03-02T16:45:52.589Z,2.60
2023-03-02T16:47:55.305Z,2.93
2023-03-02T16:49:58.805Z,3.53
2023-03-02T16:52:02.175Z,3.27
2023-03-02T16:54:05.810Z,4.77
2023-03-02T16:56:09.901Z,3.47
2023-03-02T16:58:12.593Z,4.23
2023-03-02T17:00:18.477Z,4.13
2023-03-02T17:02:21.356Z,4.17
2023-03-02T17:04:24.042Z,4.30
2023-03-02T17:06:26.665Z,3.83
2023-03-02T17:08:29.390Z,2.90
2023-03-02T17:10:32.081Z,3.00
2023-03-02T17:12:34.785Z,3.50
2023-03-02T17:14:37.399Z,3.73
2023-03-02T17:16:41.688Z,4.03
2023-03-02T17:18:47.276Z,3.90
2023-03-02T17:20:54.746Z,3.50
2023-03-02T17:22:57.375Z,3.97
2023-03-02T17:25:02.388Z,3.20
2023-03-02T17:27:13.223Z,3.60
2023-03-02T17:29:22.376Z,3.03
2023-03-02T17:31:25.203Z,4.33
2023-03-02T17:33:29.749Z,3.53
2023-03-02T17:35:32.679Z,4.00
2023-03-02T17:37:35.548Z,3.33
2023-03-02T17:39:39.104Z,4.17
2023-03-02T17:41:41.753Z,3.80
2023-03-02T17:43:44.517Z,3.97
2023-03-02T17:45:47.199Z,3.53
2023-03-02T17:47:51.199Z,3.63
2023-03-02T17:49:54.788Z,3.60
2023-03-02T17:51:57.831Z,4.40
2023-03-02T17:54:00.586Z,4.07
2023-03-02T17:56:03.228Z,4.23
2023-03-02T17:58:06.107Z,3.30
2023-03-02T18:00:13.561Z,2.90
2023-03-02T18:02:17.660Z,3.90
2023-03-02T18:04:20.360Z,3.67
2023-03-02T18:06:23.295Z,3.87
2023-03-02T18:08:26.607Z,4.63
2023-03-02T18:10:31.789Z,4.33
2023-03-02T18:12:35.382Z,3.33
2023-03-02T18:14:39.486Z,3.23
2023-03-02T18:16:42.286Z,3.70
2023-03-02T18:18:45.345Z,3.33
2023-03-02T18:20:48.014Z,4.03
2023-03-02T18:22:50.604Z,3.33
2023-03-02T18:24:53.392Z,5.03
2023-03-02T18:26:57.331Z,3.73
2023-03-02T18:29:00.807Z,3.70
2023-03-02T18:31:05.371Z,3.10
2023-03-02T18:33:08.240Z,4.17
2023-03-02T18:35:12.253Z,3.30
2023-03-02T18:37:21.848Z,3.77
2023-03-02T18:39:27.717Z,2.87
2023-03-02T18:41:32.618Z,3.30
2023-03-02T18:43:39.139Z,3.10
2023-03-02T18:45:42.439Z,3.43
2023-03-02T18:47:46.294Z,3.37
2023-03-02T18:49:50.373Z,4.33
2023-03-02T18:51:57.018Z,3.43
2023-03-02T18:54:00.992Z,3.27
2023-03-02T18:56:03.727Z,3.83
2023-03-02T18:58:07.657Z,3.83
2023-03-02T19:00:18.988Z,3.97
2023-03-02T19:02:21.660Z,3.22
2023-03-02T19:04:26.827Z,4.20
2023-03-02T19:06:29.462Z,4.00
2023-03-02T19:08:32.371Z,3.77
2023-03-02T19:10:36.979Z,4.03
2023-03-02T19:12:39.620Z,3.43
2023-03-02T19:14:42.929Z,3.50
2023-03-02T19:16:46.127Z,3.97
2023-03-02T19:18:48.954Z,4.00
2023-03-02T19:20:54.389Z,3.60
2023-03-02T19:22:57.034Z,3.87
2023-03-02T19:24:59.809Z,4.00
2023-03-02T19:27:02.928Z,4.20
2023-03-02T19:29:05.881Z,4.07
2023-03-02T19:31:09.729Z,3.43
2023-03-02T19:33:12.590Z,3.10
2023-03-02T19:35:18.150Z,3.47
2023-03-02T19:37:20.968Z,2.77
2023-03-02T19:39:23.659Z,4.63
2023-03-02T19:41:26.261Z,3.50
2023-03-02T19:43:29.323Z,3.97
2023-03-02T19:45:35.163Z,3.37
2023-03-02T19:47:37.857Z,3.77
2023-03-02T19:49:40.763Z,3.60
2023-03-02T19:51:43.469Z,4.50
2023-03-02T19:53:47.273Z,3.67
2023-03-02T19:55:51.619Z,3.03
2023-03-02T19:58:00.095Z,3.40
2023-03-02T20:00:04.970Z,4.30
2023-03-02T20:02:09.205Z,2.63
2023-03-02T20:04:11.915Z,3.87
2023-03-02T20:06:15.758Z,5.40
2023-03-02T20:08:21.708Z,5.10
2023-03-02T20:10:31.299Z,4.13
2023-03-02T20:12:34.943Z,3.30
2023-03-02T20:14:38.823Z,3.37
2023-03-02T20:16:41.578Z,3.47
2023-03-02T20:18:45.768Z,3.10
2023-03-02T20:20:48.750Z,3.07
2023-03-02T20:22:51.447Z,3.20
2023-03-02T20:24:54.105Z,3.13
2023-03-02T20:26:56.864Z,3.50
2023-03-02T20:29:02.310Z,3.10
2023-03-02T20:31:09.167Z,2.70
2023-03-02T20:33:12.995Z,2.90
2023-03-02T20:35:15.782Z,3.57
2023-03-02T20:37:18.405Z,4.33
2023-03-02T20:39:27.709Z,5.07
2023-03-02T20:41:31.112Z,3.07
2023-03-02T20:43:33.857Z,4.33
2023-03-02T20:45:36.610Z,4.00
2023-03-02T20:47:39.280Z,2.80
2023-03-02T20:49:42.361Z,3.53
2023-03-02T20:51:49.517Z,3.43
2023-03-02T20:53:53.316Z,3.23
2023-03-02T20:55:58.229Z,3.80
2023-03-02T20:58:01.685Z,2.43
2023-03-02T21:00:13.986Z,2.57
2023-03-02T21:02:19.413Z,3.10
2023-03-02T21:04:22.655Z,3.53
2023-03-02T21:06:25.441Z,2.50
2023-03-02T21:08:28.172Z,2.67
2023-03-02T21:10:34.893Z,2.20
2023-03-02T21:12:37.624Z,2.80
2023-03-02T21:14:40.770Z,3.07
2023-03-02T21:16:45.082Z,2.37
2023-03-02T21:18:47.852Z,2.80
2023-03-02T21:20:50.473Z,2.93
2023-03-02T21:22:53.124Z,3.47
2023-03-02T21:24:55.790Z,2.90
2023-03-02T21:27:00.429Z,2.93
2023-03-02T21:29:03.956Z,2.90
2023-03-02T21:31:06.672Z,3.40
2023-03-02T21:33:09.511Z,3.10
2023-03-02T21:35:20.327Z,3.10
2023-03-02T21:37:23.048Z,3.77
2023-03-02T21:39:25.863Z,2.87
2023-03-02T21:41:28.664Z,3.20
2023-03-02T21:43:31.313Z,3.87
2023-03-02T21:45:34.488Z,2.47
2023-03-02T21:47:38.931Z,2.63
2023-03-02T21:49:41.568Z,3.47
2023-03-02T21:51:44.338Z,3.30
2023-03-02T21:53:47.409Z,3.87
2023-03-02T21:55:53.732Z,3.30
2023-03-02T21:57:57.710Z,3.90
2023-03-02T22:00:00.891Z,3.27
2023-03-02T22:02:05.220Z,3.00
2023-03-02T22:04:07.927Z,3.50
2023-03-02T22:06:17.608Z,2.57
2023-03-02T22:08:21.680Z,3.67
2023-03-02T22:10:29.807Z,2.80
2023-03-02T22:12:32.520Z,3.40
2023-03-02T22:14:35.166Z,3.00
2023-03-02T22:16:40.939Z,2.87
2023-03-02T22:18:45.356Z,3.20
2023-03-02T22:20:51.176Z,2.60
2023-03-02T22:22:54.552Z,3.40
2023-03-02T22:24:57.265Z,3.40
2023-03-02T22:27:21.182Z,3.20
2023-03-02T22:29:40.701Z,2.93
2023-03-02T22:31:47.701Z,3.50
2023-03-02T22:33:50.554Z,3.50
2023-03-02T22:36:00.006Z,2.80
2023-03-02T22:38:12.055Z,3.50
2023-03-02T22:42:23.522Z,3.60
2023-03-02T22:44:26.167Z,2.90
2023-03-02T22:46:28.820Z,3.80
2023-03-02T22:48:35.357Z,2.90
2023-03-02T22:50:37.973Z,3.60
2023-03-02T22:52:43.251Z,3.67
2023-03-02T22:54:46.103Z,2.93
2023-03-02T22:56:53.442Z,4.20
2023-03-02T22:59:01.491Z,3.77
2023-03-02T23:01:37.606Z,3.33
2023-03-02T23:03:46.203Z,4.70
2023-03-02T23:05:53.128Z,3.97
2023-03-02T23:08:22.616Z,4.03
2023-03-02T23:10:25.348Z,3.57
2023-03-02T23:12:28.394Z,4.37
2023-03-02T23:14:47.913Z,3.63
2023-03-02T23:17:14.674Z,3.73
2023-03-02T23:19:17.414Z,3.40
2023-03-02T23:21:28.384Z,4.27
2023-03-02T23:23:31.234Z,4.15
2023-03-02T23:25:33.910Z,4.87
2023-03-02T23:27:36.668Z,4.93
2023-03-02T23:29:39.918Z,4.00
2023-03-02T23:31:43.983Z,4.77
2023-03-02T23:33:47.030Z,4.40
2023-03-02T23:35:49.724Z,3.73
2023-03-02T23:37:52.532Z,2.60
2023-03-02T23:39:55.206Z,3.83
2023-03-02T23:41:57.856Z,4.43
2023-03-02T23:44:00.581Z,3.83
2023-03-02T23:46:03.463Z,4.33
2023-03-02T23:48:06.377Z,3.60
2023-03-02T23:50:10.944Z,3.77
2023-03-02T23:52:13.872Z,4.37
2023-03-02T23:54:16.537Z,3.40
2023-03-02T23:56:19.436Z,3.60
2023-03-02T23:58:22.521Z,3.60
